Terminal Aerodrome Forecast
Issued by NWS

Home | Current Version | Previous Version | Text Only | Print | Product List | Glossary On
Versions: 1 2 3 4 5 6 7 8 9 10 11 12 13 14 15 16 17
000
FTUS42 KMLB 242340
TAFSFB
TAF
KSFB 242340Z 2500/2524 04006KT P6SM SCT025 SCT050 SCT120
     FM250900 35003KT P6SM FEW009 SCT015
     FM251400 34006KT P6SM SCT030 SCT250
     FM251800 02008KT P6SM SCT040 SCT060=

USA.gov is the U.S. government's official web portal to all federal, state and local government web resources and services.